KEVV

Evansville Regional Airport

Evansville, Indiana, USA
METAR KEVV 191754Z 17003KT 10SM FEW065 33/19 A2999 RMK AO2 SLP151 T03280189 10333 20211 58005
Observed Flight Rules
Sep-19 @ 17:54 UTC (53 minutes ago) Visual Flight Rules
Wind Visibility Clouds
170° at 3 knots 10 miles
  • Few at 6,500' AGL
Temperatures Readings
Current 33°C / 91°F
Dewpoint 19°C / 66°F
Humidity 44%
Altimeter 29.99" Hg
Pressure 1015.1 hPa
Elevation 117
METAR KEVV 191754Z 17003KT 10SM FEW065 33/19 A2999 RMK AO2 SLP151 T03280189 10333 20211 58005
Observed Flight Rules
Sep-19 @ 17:54 UTC
(53 minutes ago)
VFR
Wind Visibility
170° at 3 knots 10 miles
Clouds
  • Few at 6,500' AGL
Temperature Dewpoint
33°C / 91°F 19°C / 66°F
Humidity Altimeter Pressure
44% 29.99" Hg 1015.1 hPa